createdAt,value
2022-10-08T00:01:43.252Z,97755.00
2022-10-08T00:04:13.668Z,97754.00
2022-10-08T00:06:41.814Z,97760.00
2022-10-08T00:09:09.945Z,97749.00
2022-10-08T00:11:40.791Z,97748.00
2022-10-08T00:14:10.167Z,97756.00
2022-10-08T00:16:41.962Z,97751.00
2022-10-08T00:19:14.993Z,97740.00
2022-10-08T00:21:45.557Z,97742.00
2022-10-08T00:24:17.067Z,97735.00
2022-10-08T00:26:46.195Z,97736.00
2022-10-08T00:29:20.999Z,97731.00
2022-10-08T00:31:51.338Z,97731.00
2022-10-08T00:34:24.241Z,97730.00
2022-10-08T00:36:53.855Z,97730.00
2022-10-08T00:39:24.071Z,97720.00
2022-10-08T00:41:55.762Z,97723.00
2022-10-08T00:44:56.199Z,97723.00
2022-10-08T00:47:36.510Z,97730.00
2022-10-08T00:50:13.307Z,97722.00
2022-10-08T00:52:46.167Z,97723.00
2022-10-08T00:55:18.382Z,97717.00
2022-10-08T00:57:46.686Z,97717.00
2022-10-08T01:00:18.508Z,97710.00
2022-10-08T01:02:47.352Z,97710.00
2022-10-08T01:05:20.689Z,97715.00
2022-10-08T01:07:59.456Z,97712.00
2022-10-08T01:10:41.348Z,97693.00
2022-10-08T01:13:24.372Z,97702.00
2022-10-08T01:16:03.000Z,97704.00
2022-10-08T01:18:46.728Z,97714.00
2022-10-08T01:21:28.585Z,97699.00
2022-10-08T01:24:44.429Z,97696.00
2022-10-08T01:27:29.359Z,97711.00
2022-10-08T01:30:02.422Z,97702.00
2022-10-08T01:32:39.927Z,97704.00
2022-10-08T01:35:13.936Z,97688.00
2022-10-08T01:37:44.968Z,97707.00
2022-10-08T01:40:20.257Z,97695.00
2022-10-08T01:42:54.034Z,97696.00
2022-10-08T01:45:27.851Z,97709.00
2022-10-08T01:48:00.364Z,97702.00
2022-10-08T01:50:36.871Z,97693.00
2022-10-08T01:53:11.456Z,97698.00
2022-10-08T01:55:43.420Z,97688.00
2022-10-08T01:58:19.256Z,97698.00
2022-10-08T02:00:52.138Z,97689.00
2022-10-08T02:03:20.287Z,97694.00
2022-10-08T02:05:54.440Z,97696.00
2022-10-08T02:08:24.425Z,97678.00
2022-10-08T02:10:53.816Z,97695.00
2022-10-08T02:13:24.424Z,97681.00
2022-10-08T02:16:03.654Z,97683.00
2022-10-08T02:18:41.476Z,97690.00
2022-10-08T02:21:17.165Z,97672.00
2022-10-08T02:23:55.187Z,97674.00
2022-10-08T02:26:30.814Z,97678.00
2022-10-08T02:29:07.751Z,97682.00
2022-10-08T02:31:44.711Z,97676.00
2022-10-08T02:34:27.137Z,97669.00
2022-10-08T02:37:02.384Z,97679.00
2022-10-08T02:39:34.060Z,97693.00
2022-10-08T02:42:10.280Z,97688.00
2022-10-08T02:44:47.165Z,97694.00
2022-10-08T02:47:21.280Z,97681.00
2022-10-08T02:49:55.908Z,97674.00
2022-10-08T02:52:28.261Z,97681.00
2022-10-08T02:55:01.322Z,97680.00
2022-10-08T02:57:37.530Z,97685.00
2022-10-08T03:00:09.356Z,97684.00
2022-10-08T03:02:44.006Z,97679.00
2022-10-08T03:05:19.069Z,97679.00
2022-10-08T03:07:51.416Z,97678.00
2022-10-08T03:10:21.899Z,97673.00
2022-10-08T03:12:50.748Z,97670.00
2022-10-08T03:15:20.717Z,97681.00
2022-10-08T03:17:49.996Z,97685.00
2022-10-08T03:20:18.104Z,97686.00
2022-10-08T03:22:46.729Z,97680.00
2022-10-08T03:25:15.143Z,97700.00
2022-10-08T03:27:43.207Z,97698.00
2022-10-08T03:30:13.434Z,97689.00
2022-10-08T03:32:42.846Z,97695.00
2022-10-08T03:35:10.910Z,97686.00
2022-10-08T03:37:41.783Z,97687.00
2022-10-08T03:40:11.967Z,97692.00
2022-10-08T03:42:40.140Z,97699.00
2022-10-08T03:45:08.977Z,97696.00
2022-10-08T03:47:37.081Z,97697.00
2022-10-08T03:50:07.929Z,97683.00
2022-10-08T03:52:36.156Z,97695.00
2022-10-08T03:55:04.651Z,97701.00
2022-10-08T03:57:32.747Z,97699.00
2022-10-08T04:00:00.832Z,97705.00
2022-10-08T04:02:29.084Z,97696.00
2022-10-08T04:04:57.242Z,97697.00
2022-10-08T04:07:26.648Z,97708.00
2022-10-08T04:09:54.721Z,97703.00
2022-10-08T04:12:22.826Z,97708.00
2022-10-08T04:14:50.902Z,97698.00
2022-10-08T04:17:19.031Z,97706.00
2022-10-08T04:19:47.078Z,97713.00
2022-10-08T04:22:15.152Z,97702.00
2022-10-08T04:24:44.598Z,97694.00
2022-10-08T04:27:12.659Z,97699.00
2022-10-08T04:29:40.722Z,97699.00
2022-10-08T04:32:08.860Z,97702.00
2022-10-08T04:34:36.949Z,97699.00
2022-10-08T04:37:05.056Z,97701.00
2022-10-08T04:39:33.208Z,97701.00
2022-10-08T04:42:02.717Z,97703.00
2022-10-08T04:44:30.752Z,97699.00
2022-10-08T04:46:58.844Z,97708.00
2022-10-08T04:49:28.848Z,97703.00
2022-10-08T04:51:57.119Z,97722.00
2022-10-08T04:54:25.489Z,97705.00
2022-10-08T04:56:53.576Z,97709.00
2022-10-08T04:59:23.030Z,97707.00
2022-10-08T05:01:52.765Z,97712.00
2022-10-08T05:04:20.879Z,97711.00
2022-10-08T05:06:49.041Z,97713.00
2022-10-08T05:09:17.302Z,97724.00
2022-10-08T05:11:45.396Z,97715.00
2022-10-08T05:14:13.551Z,97719.00
2022-10-08T05:16:42.987Z,97713.00
2022-10-08T05:19:11.080Z,97728.00
2022-10-08T05:21:39.207Z,97726.00
2022-10-08T05:24:09.731Z,97732.00
2022-10-08T05:29:30.250Z,97734.00
2022-10-08T05:32:00.112Z,97743.00
2022-10-08T05:34:28.690Z,97734.00
2022-10-08T05:36:56.795Z,97750.00
2022-10-08T05:39:24.952Z,97750.00
2022-10-08T05:41:54.022Z,97740.00
2022-10-08T05:44:22.379Z,97752.00
2022-10-08T05:46:50.519Z,97740.00
2022-10-08T05:49:23.166Z,97736.00
2022-10-08T05:51:52.423Z,97758.00
2022-10-08T05:54:21.040Z,97747.00
2022-10-08T05:56:49.272Z,97750.00
2022-10-08T05:59:21.267Z,97749.00
2022-10-08T06:01:49.660Z,97746.00
2022-10-08T06:04:20.108Z,97760.00
2022-10-08T06:06:48.705Z,97761.00
2022-10-08T06:09:19.340Z,97782.00
2022-10-08T06:11:48.264Z,97757.00
2022-10-08T06:14:19.105Z,97787.00
2022-10-08T06:16:47.525Z,97776.00
2022-10-08T06:19:15.870Z,97786.00
2022-10-08T06:21:45.288Z,97794.00
2022-10-08T06:24:13.866Z,97787.00
2022-10-08T06:26:43.968Z,97789.00
2022-10-08T06:29:16.988Z,97790.00
2022-10-08T06:31:45.943Z,97804.00
2022-10-08T06:34:14.475Z,97806.00
2022-10-08T06:36:42.948Z,97801.00
2022-10-08T06:39:16.351Z,97806.00
2022-10-08T06:41:44.847Z,97812.00
2022-10-08T06:44:15.414Z,97823.00
2022-10-08T06:46:44.048Z,97812.00
2022-10-08T06:49:13.226Z,97813.00
2022-10-08T06:51:41.691Z,97820.00
2022-10-08T06:54:09.762Z,97819.00
2022-10-08T06:56:40.087Z,97820.00
2022-10-08T06:59:08.947Z,97816.00
2022-10-08T07:01:37.244Z,97811.00
2022-10-08T07:04:07.455Z,97814.00
2022-10-08T07:06:36.109Z,97818.00
2022-10-08T07:09:07.014Z,97813.00
2022-10-08T07:11:35.388Z,97820.00
2022-10-08T07:14:04.946Z,97822.00
2022-10-08T07:16:33.260Z,97816.00
2022-10-08T07:19:01.700Z,97819.00
2022-10-08T07:21:31.272Z,97838.00
2022-10-08T07:24:01.733Z,97844.00
2022-10-08T07:26:34.190Z,97842.00
2022-10-08T07:29:06.671Z,97838.00
2022-10-08T07:31:37.827Z,97836.00
2022-10-08T07:34:09.400Z,97843.00
2022-10-08T07:36:38.503Z,97834.00
2022-10-08T07:39:09.753Z,97842.00
2022-10-08T07:41:38.109Z,97835.00
2022-10-08T07:44:08.558Z,97851.00
2022-10-08T07:46:38.955Z,97838.00
2022-10-08T07:49:07.047Z,97833.00
2022-10-08T07:51:36.057Z,97827.00
2022-10-08T07:54:07.513Z,97834.00
2022-10-08T07:56:36.881Z,97844.00
2022-10-08T07:59:07.659Z,97852.00
2022-10-08T08:01:36.720Z,97854.00
2022-10-08T08:04:07.687Z,97863.00
2022-10-08T08:06:41.262Z,97858.00
2022-10-08T08:09:10.364Z,97865.00
2022-10-08T08:11:39.902Z,97863.00
2022-10-08T08:14:09.830Z,97864.00
2022-10-08T08:16:38.167Z,97863.00
2022-10-08T08:19:07.019Z,97862.00
2022-10-08T08:21:38.160Z,97866.00
2022-10-08T08:24:10.568Z,97869.00
2022-10-08T08:26:41.585Z,97878.00
2022-10-08T08:29:15.891Z,97879.00
2022-10-08T08:31:46.524Z,97882.00
2022-10-08T08:34:20.821Z,97874.00
2022-10-08T08:36:51.133Z,97869.00
2022-10-08T08:39:22.685Z,97879.00
2022-10-08T08:42:19.941Z,97875.00
2022-10-08T08:44:58.081Z,97878.00
2022-10-08T08:47:32.176Z,97872.00
2022-10-08T08:50:07.011Z,97885.00
2022-10-08T08:52:43.239Z,97883.00
2022-10-08T08:55:16.747Z,97886.00
2022-10-08T08:57:57.398Z,97881.00
2022-10-08T09:00:36.653Z,97902.00
2022-10-08T09:03:17.781Z,97903.00
2022-10-08T09:05:50.638Z,97899.00
2022-10-08T09:08:24.091Z,97904.00
2022-10-08T09:10:57.405Z,97901.00
2022-10-08T09:13:30.197Z,97889.00
2022-10-08T09:16:00.551Z,97891.00
2022-10-08T09:18:28.881Z,97902.00
2022-10-08T09:20:57.000Z,97899.00
2022-10-08T09:23:27.900Z,97895.00
2022-10-08T09:26:02.819Z,97892.00
2022-10-08T09:28:44.568Z,97889.00
2022-10-08T09:31:27.734Z,97902.00
2022-10-08T09:34:01.475Z,97890.00
2022-10-08T09:36:37.951Z,97893.00
2022-10-08T09:39:17.159Z,97904.00
2022-10-08T09:41:47.523Z,97903.00
2022-10-08T09:44:20.428Z,97904.00
2022-10-08T09:47:05.433Z,97899.00
2022-10-08T09:49:38.223Z,97899.00
2022-10-08T09:52:17.107Z,97904.00
2022-10-08T09:54:50.668Z,97901.00
2022-10-08T09:57:22.761Z,97904.00
2022-10-08T09:59:54.751Z,97900.00
2022-10-08T10:02:34.647Z,97898.00
2022-10-08T10:05:06.485Z,97885.00
2022-10-08T10:07:41.951Z,97898.00
2022-10-08T10:10:21.063Z,97891.00
2022-10-08T10:12:55.800Z,97896.00
2022-10-08T10:15:30.130Z,97895.00
2022-10-08T10:18:05.209Z,97895.00
2022-10-08T10:20:39.020Z,97889.00
2022-10-08T10:23:15.980Z,97900.00
2022-10-08T10:25:50.412Z,97892.00
2022-10-08T10:28:29.927Z,97889.00
2022-10-08T10:31:04.678Z,97891.00
2022-10-08T10:33:40.653Z,97879.00
2022-10-08T10:36:15.651Z,97874.00
2022-10-08T10:38:53.228Z,97887.00
2022-10-08T10:41:33.963Z,97890.00
2022-10-08T10:44:07.257Z,97882.00
2022-10-08T10:46:42.577Z,97877.00
2022-10-08T10:49:16.703Z,97890.00
2022-10-08T10:52:04.392Z,97893.00
2022-10-08T10:55:02.096Z,97892.00
2022-10-08T10:57:47.965Z,97892.00
2022-10-08T11:00:23.087Z,97894.00
2022-10-08T11:03:00.950Z,97906.00
2022-10-08T11:05:35.685Z,97898.00
2022-10-08T11:08:31.203Z,97887.00
2022-10-08T11:11:22.311Z,97896.00
2022-10-08T11:14:13.392Z,97901.00
2022-10-08T11:16:55.184Z,97895.00
2022-10-08T11:19:43.454Z,97898.00
2022-10-08T11:22:24.489Z,97904.00
2022-10-08T11:25:20.743Z,97900.00
2022-10-08T11:28:07.844Z,97907.00
2022-10-08T11:30:50.208Z,97910.00
2022-10-08T11:33:19.366Z,97906.00
2022-10-08T11:36:06.398Z,97900.00
2022-10-08T11:38:45.570Z,97914.00
2022-10-08T11:41:24.672Z,97897.00
2022-10-08T11:43:58.439Z,97923.00
2022-10-08T11:46:31.217Z,97917.00
2022-10-08T11:49:01.611Z,97906.00
2022-10-08T11:51:41.217Z,97913.00
2022-10-08T11:54:19.604Z,97902.00
2022-10-08T11:56:51.668Z,97912.00
2022-10-08T11:59:42.993Z,97922.00
2022-10-08T12:02:26.066Z,97913.00
2022-10-08T12:04:58.326Z,97914.00
2022-10-08T12:07:33.613Z,97915.00
2022-10-08T12:10:31.782Z,97920.00
2022-10-08T12:13:31.324Z,97914.00
2022-10-08T12:16:06.834Z,97916.00
2022-10-08T12:18:54.075Z,97915.00
2022-10-08T12:21:50.932Z,97907.00
2022-10-08T12:24:56.556Z,97910.00
2022-10-08T12:27:32.652Z,97921.00
2022-10-08T12:30:04.751Z,97909.00
2022-10-08T12:32:53.342Z,97925.00
2022-10-08T12:35:26.928Z,97929.00
2022-10-08T12:38:22.956Z,97938.00
2022-10-08T12:41:07.329Z,97918.00
2022-10-08T12:43:48.345Z,97920.00
2022-10-08T12:46:33.063Z,97935.00
2022-10-08T12:49:09.759Z,97935.00
2022-10-08T12:51:47.801Z,97924.00
2022-10-08T12:54:21.799Z,97923.00
2022-10-08T12:56:51.434Z,97930.00
2022-10-08T12:59:23.825Z,97923.00
2022-10-08T13:01:53.492Z,97934.00
2022-10-08T13:04:25.491Z,97935.00
2022-10-08T13:06:55.893Z,97946.00
2022-10-08T13:09:30.975Z,97938.00
2022-10-08T13:12:03.855Z,97945.00
2022-10-08T13:14:36.116Z,97939.00
2022-10-08T13:17:05.778Z,97937.00
2022-10-08T13:19:36.609Z,97943.00
2022-10-08T13:22:08.597Z,97939.00
2022-10-08T13:24:43.285Z,97944.00
2022-10-08T13:27:27.510Z,97940.00
2022-10-08T13:29:58.302Z,97941.00
2022-10-08T13:32:29.956Z,97931.00
2022-10-08T13:35:02.374Z,97933.00
2022-10-08T13:37:36.165Z,97934.00
2022-10-08T13:40:18.847Z,97940.00
2022-10-08T13:42:50.555Z,97938.00
2022-10-08T13:45:23.519Z,97933.00
2022-10-08T13:47:52.390Z,97933.00
2022-10-08T13:50:21.903Z,97928.00
2022-10-08T13:52:54.694Z,97935.00
2022-10-08T13:55:27.652Z,97933.00
2022-10-08T13:57:57.651Z,97942.00
2022-10-08T14:00:28.176Z,97948.00
2022-10-08T14:02:56.534Z,97939.00
2022-10-08T14:05:26.332Z,97929.00
2022-10-08T14:07:59.571Z,97950.00
2022-10-08T14:10:28.049Z,97943.00
2022-10-08T14:12:56.144Z,97940.00
2022-10-08T14:15:24.431Z,97937.00
2022-10-08T14:17:53.877Z,97939.00
2022-10-08T14:20:22.103Z,97942.00
2022-10-08T14:22:51.301Z,97936.00
2022-10-08T14:25:23.986Z,97942.00
2022-10-08T14:27:52.569Z,97941.00
2022-10-08T14:30:21.057Z,97949.00
2022-10-08T14:32:49.183Z,97946.00
2022-10-08T14:35:18.888Z,97950.00
2022-10-08T14:37:47.523Z,97941.00
2022-10-08T14:40:19.688Z,97938.00
2022-10-08T14:42:48.007Z,97944.00
2022-10-08T14:45:16.716Z,97927.00
2022-10-08T14:47:44.871Z,97936.00
2022-10-08T14:50:13.526Z,97940.00
2022-10-08T14:52:44.537Z,97931.00
2022-10-08T14:55:14.036Z,97936.00
2022-10-08T14:57:42.192Z,97939.00
2022-10-08T15:00:13.101Z,97942.00
2022-10-08T15:02:41.539Z,97947.00
2022-10-08T15:05:10.446Z,97940.00
2022-10-08T15:07:38.566Z,97941.00
2022-10-08T15:10:09.817Z,97938.00
2022-10-08T15:12:37.944Z,97929.00
2022-10-08T15:15:07.559Z,97936.00
2022-10-08T15:17:35.848Z,97932.00
2022-10-08T15:20:04.402Z,97945.00
2022-10-08T15:22:32.538Z,97948.00
2022-10-08T15:25:00.656Z,97950.00
2022-10-08T15:27:30.063Z,97957.00
2022-10-08T15:29:58.260Z,97954.00
2022-10-08T15:32:30.351Z,97959.00
2022-10-08T15:34:58.901Z,97959.00
2022-10-08T15:37:27.011Z,97971.00
2022-10-08T15:39:55.100Z,97967.00
2022-10-08T15:42:23.180Z,97965.00
2022-10-08T15:44:53.620Z,97964.00
2022-10-08T15:47:21.892Z,97971.00
2022-10-08T15:49:50.096Z,97978.00
2022-10-08T15:52:21.467Z,97976.00
2022-10-08T15:54:49.921Z,97981.00
2022-10-08T15:57:19.661Z,97984.00
2022-10-08T15:59:47.803Z,97991.00
2022-10-08T16:02:18.783Z,98002.00
2022-10-08T16:04:48.526Z,97986.00
2022-10-08T16:07:17.276Z,98003.00
2022-10-08T16:09:45.475Z,98001.00
2022-10-08T16:12:13.649Z,98005.00
2022-10-08T16:14:41.783Z,97997.00
2022-10-08T16:17:10.480Z,98000.00
2022-10-08T16:19:40.025Z,98001.00
2022-10-08T16:22:08.747Z,98010.00
2022-10-08T16:24:36.935Z,98017.00
2022-10-08T16:27:05.221Z,98025.00
2022-10-08T16:29:33.294Z,98022.00
2022-10-08T16:32:01.411Z,98014.00
2022-10-08T16:34:31.620Z,98027.00
2022-10-08T16:37:01.884Z,98028.00
2022-10-08T16:39:30.021Z,98023.00
2022-10-08T16:41:58.128Z,98048.00
2022-10-08T16:44:26.464Z,98040.00
2022-10-08T16:46:54.828Z,98056.00
2022-10-08T16:49:27.108Z,98050.00
2022-10-08T16:51:59.954Z,98055.00
2022-10-08T16:54:30.230Z,98062.00
2022-10-08T16:56:58.703Z,98066.00
2022-10-08T16:59:29.819Z,98065.00
2022-10-08T17:02:00.466Z,98064.00
2022-10-08T17:04:34.821Z,98069.00
2022-10-08T17:07:02.968Z,98068.00
2022-10-08T17:09:32.599Z,98063.00
2022-10-08T17:12:00.853Z,98082.00
2022-10-08T17:14:30.347Z,98087.00
2022-10-08T17:16:58.464Z,98094.00
2022-10-08T17:19:26.588Z,98085.00
2022-10-08T17:21:54.716Z,98113.00
2022-10-08T17:24:22.982Z,98103.00
2022-10-08T17:26:52.440Z,98110.00
2022-10-08T17:29:20.590Z,98127.00
2022-10-08T17:31:49.388Z,98117.00
2022-10-08T17:34:17.524Z,98129.00
2022-10-08T17:36:45.810Z,98135.00
2022-10-08T17:39:15.126Z,98136.00
2022-10-08T17:41:44.574Z,98134.00
2022-10-08T17:44:14.564Z,98131.00
2022-10-08T17:46:46.795Z,98137.00
2022-10-08T17:49:15.754Z,98148.00
2022-10-08T17:51:44.061Z,98143.00
2022-10-08T17:54:14.482Z,98143.00
2022-10-08T17:56:43.356Z,98155.00
2022-10-08T17:59:16.409Z,98152.00
2022-10-08T18:01:46.040Z,98156.00
2022-10-08T18:04:17.443Z,98160.00
2022-10-08T18:06:47.949Z,98162.00
2022-10-08T18:09:19.254Z,98156.00
2022-10-08T18:11:51.802Z,98163.00
2022-10-08T18:14:22.538Z,98173.00
2022-10-08T18:16:51.203Z,98181.00
2022-10-08T18:19:19.909Z,98175.00
2022-10-08T18:21:48.180Z,98178.00
2022-10-08T18:24:17.647Z,98185.00
2022-10-08T18:26:46.695Z,98183.00
2022-10-08T18:29:15.825Z,98182.00
2022-10-08T18:31:46.515Z,98191.00
2022-10-08T18:34:18.576Z,98189.00
2022-10-08T18:36:47.846Z,98191.00
2022-10-08T18:39:18.629Z,98207.00
2022-10-08T18:41:49.219Z,98219.00
2022-10-08T18:44:20.671Z,98224.00
2022-10-08T18:46:51.098Z,98211.00
2022-10-08T18:49:23.787Z,98214.00
2022-10-08T18:51:51.928Z,98217.00
2022-10-08T18:54:20.304Z,98224.00
2022-10-08T18:56:48.406Z,98226.00
2022-10-08T18:59:18.360Z,98228.00
2022-10-08T19:01:49.433Z,98216.00
2022-10-08T19:04:21.133Z,98223.00
2022-10-08T19:06:52.155Z,98237.00
2022-10-08T19:09:20.702Z,98237.00
2022-10-08T19:11:51.343Z,98232.00
2022-10-08T19:14:21.957Z,98247.00
2022-10-08T19:16:51.992Z,98247.00
2022-10-08T19:19:22.202Z,98251.00
2022-10-08T19:21:52.034Z,98251.00
2022-10-08T19:24:22.816Z,98241.00
2022-10-08T19:26:51.583Z,98255.00
2022-10-08T19:29:23.082Z,98264.00
2022-10-08T19:31:53.275Z,98263.00
2022-10-08T19:34:26.057Z,98269.00
2022-10-08T19:36:54.893Z,98280.00
2022-10-08T19:39:26.525Z,98268.00
2022-10-08T19:41:55.890Z,98281.00
2022-10-08T19:44:25.779Z,98286.00
2022-10-08T19:46:55.353Z,98288.00
2022-10-08T19:49:23.979Z,98278.00
2022-10-08T19:51:53.623Z,98287.00
2022-10-08T19:54:21.691Z,98301.00
2022-10-08T19:56:49.837Z,98303.00
2022-10-08T19:59:18.901Z,98298.00
2022-10-08T20:01:47.110Z,98307.00
2022-10-08T20:04:16.864Z,98309.00
2022-10-08T20:06:45.106Z,98322.00
2022-10-08T20:09:15.255Z,98311.00
2022-10-08T20:11:44.992Z,98327.00
2022-10-08T20:14:15.030Z,98310.00
2022-10-08T20:16:44.336Z,98323.00
2022-10-08T20:19:20.053Z,98330.00
2022-10-08T20:21:49.846Z,98327.00
2022-10-08T20:24:20.035Z,98324.00
2022-10-08T20:26:49.353Z,98338.00
2022-10-08T20:29:20.095Z,98335.00
2022-10-08T20:31:50.644Z,98347.00
2022-10-08T20:34:23.640Z,98348.00
2022-10-08T20:36:53.120Z,98347.00
2022-10-08T20:39:22.982Z,98345.00
2022-10-08T20:41:51.886Z,98343.00
2022-10-08T20:44:21.095Z,98342.00
2022-10-08T20:46:51.715Z,98353.00
2022-10-08T20:49:21.435Z,98346.00
2022-10-08T20:51:49.592Z,98346.00
2022-10-08T20:54:18.634Z,98352.00
2022-10-08T20:56:46.829Z,98347.00
2022-10-08T20:59:19.291Z,98357.00
2022-10-08T21:01:50.375Z,98359.00
2022-10-08T21:04:19.337Z,98361.00
2022-10-08T21:06:51.261Z,98345.00
2022-10-08T21:09:21.870Z,98347.00
2022-10-08T21:11:50.236Z,98350.00
2022-10-08T21:14:21.413Z,98349.00
2022-10-08T21:16:50.607Z,98351.00
2022-10-08T21:19:23.057Z,98350.00
2022-10-08T21:21:53.399Z,98356.00
2022-10-08T21:24:21.784Z,98356.00
2022-10-08T21:26:49.890Z,98367.00
2022-10-08T21:29:17.994Z,98357.00
2022-10-08T21:31:46.181Z,98377.00
2022-10-08T21:34:14.445Z,98363.00
2022-10-08T21:36:44.521Z,98364.00
2022-10-08T21:39:18.243Z,98376.00
2022-10-08T21:41:47.167Z,98381.00
2022-10-08T21:44:15.730Z,98379.00
2022-10-08T21:46:44.563Z,98378.00
2022-10-08T21:49:15.356Z,98383.00
2022-10-08T21:51:44.079Z,98377.00
2022-10-08T21:54:12.458Z,98381.00
2022-10-08T21:56:42.962Z,98377.00
2022-10-08T21:59:15.407Z,98377.00
2022-10-08T22:01:45.650Z,98381.00
2022-10-08T22:04:16.265Z,98376.00
2022-10-08T22:06:48.133Z,98392.00
2022-10-08T22:09:19.116Z,98400.00
2022-10-08T22:11:49.547Z,98388.00
2022-10-08T22:14:18.458Z,98380.00
2022-10-08T22:16:47.299Z,98388.00
2022-10-08T22:19:16.659Z,98390.00
2022-10-08T22:21:45.548Z,98383.00
2022-10-08T22:24:14.413Z,98374.00
2022-10-08T22:26:46.144Z,98384.00
2022-10-08T22:29:16.440Z,98373.00
2022-10-08T22:31:44.649Z,98375.00
2022-10-08T22:34:13.139Z,98374.00
2022-10-08T22:36:45.321Z,98384.00
2022-10-08T22:39:14.740Z,98390.00
2022-10-08T22:41:44.017Z,98384.00
2022-10-08T22:44:12.162Z,98391.00
2022-10-08T22:46:41.882Z,98378.00
2022-10-08T22:49:12.206Z,98392.00
2022-10-08T22:51:41.030Z,98389.00
2022-10-08T22:54:09.984Z,98392.00
2022-10-08T22:56:38.143Z,98379.00
2022-10-08T22:59:06.256Z,98379.00
2022-10-08T23:01:34.374Z,98396.00
2022-10-08T23:04:03.863Z,98390.00
2022-10-08T23:06:36.506Z,98386.00
2022-10-08T23:09:08.037Z,98401.00
2022-10-08T23:11:36.588Z,98388.00
2022-10-08T23:14:06.443Z,98389.00
2022-10-08T23:16:35.853Z,98392.00
2022-10-08T23:19:08.549Z,98396.00
2022-10-08T23:21:37.900Z,98390.00
2022-10-08T23:24:06.718Z,98391.00
2022-10-08T23:26:36.017Z,98405.00
2022-10-08T23:29:05.518Z,98402.00
2022-10-08T23:31:36.248Z,98402.00
2022-10-08T23:34:08.498Z,98401.00
2022-10-08T23:36:39.525Z,98400.00
2022-10-08T23:39:11.323Z,98407.00
2022-10-08T23:41:39.479Z,98400.00
2022-10-08T23:44:08.777Z,98407.00
2022-10-08T23:46:36.858Z,98395.00
2022-10-08T23:49:06.900Z,98396.00
2022-10-08T23:51:35.897Z,98415.00
2022-10-08T23:54:04.259Z,98412.00
2022-10-08T23:56:32.406Z,98412.00
2022-10-08T23:59:00.736Z,98403.00
